Time;durP1;ratioP1;P1;durP2;ratioP2;P2;SDS_P1;SDS_P2;PMS_P1;PMS_P2;Temp;Humidity;BMP_temperature;BMP_pressure;BME280_temperature;BME280_humidity;BME280_pressure;Samples;Min_cycle;Max_cycle;Signal;HPM_P1;HPM_P2
2024/02/15 00:02:22;;;;;;;19.50;5.23;;;14.40;99.90;;;;;;7286488;19;20182;-79
2024/02/15 00:04:48;;;;;;;18.00;5.50;;;14.30;99.90;;;;;;7308460;19;20207;-79
2024/02/15 00:07:14;;;;;;;19.63;5.23;;;14.40;99.90;;;;;;7286537;19;20187;-80
2024/02/15 00:09:40;;;;;;;17.73;5.20;;;14.50;99.90;;;;;;7285100;19;20204;-80
2024/02/15 00:12:05;;;;;;;18.77;5.17;;;14.50;99.90;;;;;;7286589;19;20195;-80
2024/02/15 00:14:31;;;;;;;14.93;4.97;;;14.60;99.90;;;;;;7283435;19;20183;-80
2024/02/15 00:16:58;;;;;;;17.90;4.47;;;14.60;99.90;;;;;;7286471;19;20630;-80
2024/02/15 00:19:23;;;;;;;16.00;5.40;;;14.50;99.90;;;;;;7284813;19;20634;-79
2024/02/15 00:21:50;;;;;;;18.23;4.87;;;14.40;99.90;;;;;;7309371;19;20210;-77
2024/02/15 00:24:15;;;;;;;17.70;4.83;;;14.40;99.90;;;;;;7297126;19;20250;-80
2024/02/15 00:26:44;;;;;;;16.03;3.93;;;14.50;99.90;;;;;;7284871;19;20215;-80
2024/02/15 00:29:10;;;;;;;14.40;4.80;;;14.50;99.90;;;;;;7286418;19;20636;-79
2024/02/15 00:31:35;;;;;;;15.73;4.30;;;14.50;99.90;;;;;;7286845;19;20960;-79
2024/02/15 00:34:04;;;;;;;13.10;3.93;;;14.40;99.90;;;;;;7283512;19;20188;-79
2024/02/15 00:36:30;;;;;;;14.67;3.90;;;14.30;99.90;;;;;;7285434;19;20259;-80
2024/02/15 00:38:56;;;;;;;14.57;4.00;;;14.40;99.90;;;;;;7283331;19;20207;-79
2024/02/15 00:41:21;;;;;;;18.17;4.00;;;14.30;99.90;;;;;;7283115;19;20198;-78
2024/02/15 00:43:48;;;;;;;16.20;4.00;;;14.30;99.90;;;;;;7308091;19;20661;-80
2024/02/15 00:46:14;;;;;;;16.40;4.03;;;14.30;99.90;;;;;;7285053;19;20199;-79
2024/02/15 00:48:40;;;;;;;19.27;4.33;;;14.20;99.90;;;;;;7283873;19;20204;-79
2024/02/15 00:51:06;;;;;;;11.83;3.53;;;14.20;99.90;;;;;;7285657;19;20204;-79
2024/02/15 00:53:32;;;;;;;17.77;3.80;;;14.20;99.90;;;;;;7283261;19;20244;-79
2024/02/15 00:55:58;;;;;;;13.23;3.40;;;14.20;99.90;;;;;;7282958;19;20195;-79
2024/02/15 00:58:25;;;;;;;13.87;2.90;;;14.10;99.90;;;;;;7283994;19;20544;-79
2024/02/15 01:00:50;;;;;;;15.97;3.13;;;14.10;99.90;;;;;;7291615;19;20206;-80
2024/02/15 01:03:16;;;;;;;14.57;2.90;;;14.00;99.90;;;;;;7303474;19;20189;-80
2024/02/15 01:05:42;;;;;;;12.47;3.10;;;14.00;99.90;;;;;;7284668;19;20209;-79
2024/02/15 01:08:08;;;;;;;8.73;2.73;;;14.00;99.90;;;;;;7284395;19;20197;-79
2024/02/15 01:10:35;;;;;;;11.87;2.60;;;14.00;99.90;;;;;;7284980;19;20190;-79
2024/02/15 01:13:00;;;;;;;15.47;3.10;;;14.00;99.90;;;;;;7283711;19;20189;-80
2024/02/15 01:15:26;;;;;;;14.33;3.03;;;14.00;99.90;;;;;;7285051;19;20309;-80
2024/02/15 01:17:52;;;;;;;10.70;2.53;;;14.10;99.90;;;;;;7284372;19;20612;-79
2024/02/15 01:20:18;;;;;;;15.43;3.00;;;14.20;99.90;;;;;;7305471;19;20195;-80
2024/02/15 01:22:44;;;;;;;10.63;2.63;;;14.30;99.90;;;;;;7283767;19;20564;-80
2024/02/15 01:25:10;;;;;;;12.97;2.80;;;14.40;99.90;;;;;;7284134;19;20227;-79
2024/02/15 01:27:37;;;;;;;10.90;2.53;;;14.40;99.90;;;;;;7286593;19;20199;-80
2024/02/15 01:30:04;;;;;;;10.73;2.33;;;14.40;99.90;;;;;;7292183;19;20200;-80
2024/02/15 01:32:30;;;;;;;10.90;2.23;;;14.40;99.90;;;;;;7289850;19;20276;-80
2024/02/15 01:34:56;;;;;;;13.17;2.70;;;14.40;99.90;;;;;;7286647;19;20265;-79
2024/02/15 01:37:22;;;;;;;11.90;2.60;;;14.50;99.90;;;;;;7286679;19;20184;-79
2024/02/15 01:39:50;;;;;;;12.73;2.57;;;14.40;99.90;;;;;;7304420;19;20191;-79
2024/02/15 01:42:15;;;;;;;11.57;2.47;;;14.30;99.90;;;;;;7284337;19;20188;-79
2024/02/15 01:44:43;;;;;;;13.07;2.43;;;14.30;99.90;;;;;;7285317;19;20185;-80
2024/02/15 01:47:10;;;;;;;12.93;2.83;;;14.30;99.90;;;;;;7281774;19;20211;-80
2024/02/15 01:49:36;;;;;;;11.97;2.60;;;14.30;99.90;;;;;;7283588;19;20195;-79
2024/02/15 01:52:05;;;;;;;10.97;2.43;;;14.20;99.90;;;;;;7282421;19;20195;-79
2024/02/15 01:54:31;;;;;;;10.90;2.40;;;14.30;99.90;;;;;;7280723;19;20187;-80
2024/02/15 01:56:57;;;;;;;14.53;2.47;;;14.30;99.90;;;;;;7283607;19;20191;-80
2024/02/15 01:59:24;;;;;;;15.10;2.73;;;14.40;99.90;;;;;;7281970;19;20278;-78
2024/02/15 02:01:50;;;;;;;9.97;2.20;;;14.40;99.90;;;;;;7296249;19;20196;-78
2024/02/15 02:04:16;;;;;;;9.60;2.50;;;14.40;99.90;;;;;;7301764;19;20188;-79
2024/02/15 02:06:42;;;;;;;9.93;2.47;;;14.40;99.90;;;;;;7278603;19;20206;-80
2024/02/15 02:09:12;;;;;;;8.90;2.40;;;14.40;99.90;;;;;;7280083;19;20192;-80
2024/02/15 02:11:38;;;;;;;10.30;2.27;;;14.40;99.90;;;;;;7280748;19;20190;-80
2024/02/15 02:14:04;;;;;;;8.17;1.90;;;14.40;99.90;;;;;;7288013;19;20185;-80
2024/02/15 02:16:39;;;;;;;10.37;2.30;;;14.30;99.90;;;;;;7286949;19;20270;-80
2024/02/15 02:19:08;;;;;;;9.80;2.33;;;14.40;99.90;;;;;;7285777;19;20195;-80
2024/02/15 02:21:36;;;;;;;9.87;2.17;;;14.50;99.90;;;;;;7287682;19;20204;-79
2024/02/15 02:24:08;;;;;;;10.77;2.40;;;14.50;99.90;;;;;;7289060;19;20650;-80
2024/02/15 02:26:34;;;;;;;11.17;2.37;;;14.60;99.90;;;;;;7289087;19;20188;-80
2024/02/15 02:29:04;;;;;;;11.80;2.13;;;14.50;99.90;;;;;;7287891;19;20278;-80
2024/02/15 02:31:36;;;;;;;9.13;2.40;;;14.50;99.90;;;;;;7290070;19;20216;-80
2024/02/15 02:34:01;;;;;;;9.70;2.13;;;14.50;99.90;;;;;;7288220;19;20204;-79
2024/02/15 02:36:29;;;;;;;16.23;2.50;;;14.50;99.90;;;;;;7289398;19;20204;-80
2024/02/15 02:38:55;;;;;;;6.20;1.97;;;14.50;99.90;;;;;;7285595;19;20672;-79
2024/02/15 02:41:21;;;;;;;11.13;2.50;;;14.50;99.90;;;;;;7298498;19;20655;-79
2024/02/15 02:43:47;;;;;;;8.13;2.27;;;14.60;99.90;;;;;;7306517;19;20206;-80
2024/02/15 02:46:13;;;;;;;9.60;2.50;;;14.50;99.90;;;;;;7287458;19;20229;-80
2024/02/15 02:48:39;;;;;;;9.77;2.60;;;14.40;99.90;;;;;;7287356;19;20788;-79
2024/02/15 02:51:07;;;;;;;13.90;2.87;;;14.40;99.90;;;;;;7287289;19;20758;-81
2024/02/15 02:53:32;;;;;;;11.33;2.43;;;14.40;99.90;;;;;;7287494;19;20195;-80
2024/02/15 02:55:58;;;;;;;11.63;2.33;;;14.40;99.90;;;;;;7290199;19;21024;-80
2024/02/15 02:58:24;;;;;;;8.30;2.10;;;14.50;99.90;;;;;;7286438;19;20203;-79
2024/02/15 03:00:51;;;;;;;12.00;2.43;;;14.40;99.90;;;;;;7308042;19;20206;-77
2024/02/15 03:03:18;;;;;;;9.87;2.37;;;14.40;99.90;;;;;;7288888;19;20185;-80
2024/02/15 03:05:44;;;;;;;8.17;2.40;;;14.30;99.90;;;;;;7287732;19;20985;-80
2024/02/15 03:08:13;;;;;;;10.80;2.37;;;14.10;99.90;;;;;;7286896;19;20219;-79
2024/02/15 03:10:40;;;;;;;13.20;2.53;;;14.00;99.90;;;;;;7288919;19;20198;-80
2024/02/15 03:13:08;;;;;;;11.47;2.50;;;14.00;99.90;;;;;;7284557;19;20199;-80
2024/02/15 03:15:35;;;;;;;7.37;2.20;;;14.00;99.90;;;;;;7284629;19;20210;-80
2024/02/15 03:18:06;;;;;;;10.07;2.30;;;14.10;99.90;;;;;;7284883;19;20205;-80
2024/02/15 03:20:37;;;;;;;10.23;2.50;;;14.20;99.90;;;;;;7283356;19;20233;-80
2024/02/15 03:23:03;;;;;;;9.80;2.10;;;14.20;99.90;;;;;;7287341;19;20581;-79
2024/02/15 03:25:29;;;;;;;12.47;2.50;;;14.20;99.90;;;;;;7285935;19;20186;-80
2024/02/15 03:27:57;;;;;;;10.27;2.60;;;14.10;99.90;;;;;;7286361;19;20585;-80
2024/02/15 03:30:26;;;;;;;11.93;2.33;;;14.20;99.90;;;;;;7287901;19;20189;-79
2024/02/15 03:32:53;;;;;;;11.80;2.30;;;14.10;99.90;;;;;;7286318;19;20328;-78
2024/02/15 03:35:22;;;;;;;7.00;2.13;;;14.10;99.90;;;;;;7307737;19;20191;-80
2024/02/15 03:37:50;;;;;;;10.63;2.20;;;14.10;99.90;;;;;;7287081;19;20188;-80
2024/02/15 03:40:17;;;;;;;10.47;2.13;;;14.10;99.90;;;;;;7288084;19;20218;-79
2024/02/15 03:42:43;;;;;;;13.00;2.37;;;14.20;99.90;;;;;;7288651;19;20193;-80
2024/02/15 03:45:09;;;;;;;11.53;2.50;;;14.20;99.90;;;;;;7286932;19;20194;-80
2024/02/15 03:47:35;;;;;;;8.53;2.07;;;14.30;99.90;;;;;;7285433;19;20196;-79
2024/02/15 03:50:05;;;;;;;9.77;2.30;;;14.30;99.90;;;;;;7286847;19;20192;-79
2024/02/15 03:52:32;;;;;;;9.10;2.10;;;14.40;99.90;;;;;;7285341;19;20188;-79
2024/02/15 03:54:59;;;;;;;7.93;2.13;;;14.40;99.90;;;;;;7286754;19;20262;-79
2024/02/15 03:57:25;;;;;;;9.43;2.00;;;14.50;99.90;;;;;;7285991;19;20206;-79
2024/02/15 03:59:56;;;;;;;13.27;2.53;;;14.60;99.90;;;;;;7290842;19;20222;-79
2024/02/15 04:02:23;;;;;;;8.73;2.50;;;14.70;99.90;;;;;;7287470;19;20185;-78
2024/02/15 04:04:55;;;;;;;9.23;2.17;;;14.70;99.90;;;;;;7309311;19;20768;-80
2024/02/15 04:07:24;;;;;;;10.30;2.90;;;14.80;99.90;;;;;;7271951;19;20183;-78
2024/02/15 04:09:50;;;;;;;9.37;2.20;;;14.80;99.90;;;;;;7307446;19;20192;-79
2024/02/15 04:12:16;;;;;;;12.17;2.40;;;14.90;99.90;;;;;;7287033;19;20181;-80
2024/02/15 04:14:46;;;;;;;8.97;2.10;;;14.70;99.90;;;;;;7286353;19;20586;-80
2024/02/15 04:17:21;;;;;;;13.37;2.60;;;14.60;99.90;;;;;;7286168;19;20414;-80
2024/02/15 04:19:50;;;;;;;12.47;2.13;;;14.50;99.90;;;;;;7284517;19;20184;-80
2024/02/15 04:22:16;;;;;;;12.80;2.17;;;14.50;99.90;;;;;;7285596;19;20741;-79
2024/02/15 04:24:45;;;;;;;9.90;2.37;;;14.50;99.90;;;;;;7286259;19;20189;-80
2024/02/15 04:27:14;;;;;;;11.10;2.43;;;14.50;99.90;;;;;;7285381;19;20301;-79
2024/02/15 04:29:41;;;;;;;10.47;2.00;;;14.60;99.90;;;;;;7289564;19;20202;-79
2024/02/15 04:32:10;;;;;;;12.17;2.20;;;14.60;99.90;;;;;;7292172;19;20600;-79
2024/02/15 04:34:46;;;;;;;14.40;2.27;;;14.70;99.90;;;;;;7289683;19;20667;-79
2024/02/15 04:37:13;;;;;;;10.43;2.20;;;14.60;99.90;;;;;;7298684;19;20193;-79
2024/02/15 04:39:39;;;;;;;13.03;2.77;;;14.60;99.90;;;;;;7297981;19;20183;-80
2024/02/15 04:42:11;;;;;;;8.43;2.10;;;14.40;99.90;;;;;;7290975;19;20266;-80
2024/02/15 04:44:39;;;;;;;11.83;2.47;;;14.40;99.90;;;;;;7290675;19;20198;-80
2024/02/15 04:47:05;;;;;;;8.67;2.10;;;14.40;99.90;;;;;;7286505;19;20199;-79
2024/02/15 04:49:32;;;;;;;11.30;1.90;;;14.30;99.90;;;;;;7285683;19;20226;-78
2024/02/15 04:51:57;;;;;;;8.70;1.73;;;14.30;99.90;;;;;;7285512;19;20192;-78
2024/02/15 04:54:23;;;;;;;9.20;2.00;;;14.30;99.90;;;;;;7284968;19;20190;-77
2024/02/15 04:56:54;;;;;;;10.67;1.83;;;14.30;99.90;;;;;;7307554;19;20196;-79
2024/02/15 04:59:21;;;;;;;7.40;2.17;;;14.30;99.90;;;;;;7286006;19;20191;-79
2024/02/15 05:01:47;;;;;;;6.00;1.70;;;14.20;99.90;;;;;;7285908;19;20662;-79
2024/02/15 05:04:13;;;;;;;8.87;1.87;;;14.20;99.90;;;;;;7285121;19;20197;-78
2024/02/15 05:06:40;;;;;;;7.93;2.00;;;14.10;99.90;;;;;;7285271;19;20186;-79
2024/02/15 05:09:10;;;;;;;7.80;1.83;;;14.20;99.90;;;;;;7283727;19;20192;-79
2024/02/15 05:11:46;;;;;;;7.87;1.70;;;14.20;99.90;;;;;;7284310;19;20200;-80
2024/02/15 05:14:12;;;;;;;9.43;2.00;;;14.20;99.90;;;;;;7284113;19;20542;-80
2024/02/15 05:16:43;;;;;;;8.37;1.70;;;14.20;99.90;;;;;;7283666;19;20196;-80
2024/02/15 05:19:12;;;;;;;9.53;2.03;;;14.30;99.90;;;;;;7284161;19;20191;-80
2024/02/15 05:21:38;;;;;;;8.07;1.87;;;14.30;99.90;;;;;;7283248;19;20913;-80
2024/02/15 05:24:06;;;;;;;11.43;2.10;;;14.40;99.90;;;;;;7284755;19;20185;-79
2024/02/15 05:26:32;;;;;;;8.43;1.60;;;14.40;99.90;;;;;;7282870;19;20195;-80
2024/02/15 05:28:58;;;;;;;7.27;1.40;;;14.40;99.90;;;;;;7283569;19;20212;-79
2024/02/15 05:31:27;;;;;;;9.17;1.67;;;14.40;99.90;;;;;;7283082;19;20657;-78
2024/02/15 05:33:53;;;;;;;5.83;1.40;;;14.40;99.90;;;;;;7282352;19;20214;-78
2024/02/15 05:36:25;;;;;;;7.07;1.57;;;14.40;99.90;;;;;;7309774;19;20198;-79
2024/02/15 05:38:52;;;;;;;7.00;1.67;;;14.40;99.90;;;;;;7282856;19;20270;-77
2024/02/15 05:41:20;;;;;;;8.27;1.80;;;14.40;99.90;;;;;;7305507;19;20575;-80
2024/02/15 05:43:48;;;;;;;6.57;1.87;;;14.40;99.90;;;;;;7283502;19;20198;-79
2024/02/15 05:46:14;;;;;;;11.83;1.67;;;14.30;99.90;;;;;;7282856;19;20196;-79
2024/02/15 05:48:40;;;;;;;7.23;1.57;;;14.40;99.90;;;;;;7282432;19;20192;-80
2024/02/15 05:51:08;;;;;;;8.23;1.70;;;14.40;99.90;;;;;;7282907;19;20191;-79
2024/02/15 05:53:37;;;;;;;7.53;1.50;;;14.50;99.90;;;;;;7281029;19;20221;-80
2024/02/15 05:56:08;;;;;;;6.83;1.40;;;14.50;99.90;;;;;;7283268;19;20195;-79
2024/02/15 05:58:34;;;;;;;8.13;1.60;;;14.50;99.90;;;;;;7283086;19;20226;-80
2024/02/15 06:01:01;;;;;;;7.53;1.30;;;14.50;99.90;;;;;;7282639;19;20240;-80
2024/02/15 06:03:28;;;;;;;6.03;1.23;;;14.60;99.90;;;;;;7285784;19;20268;-80
2024/02/15 06:06:02;;;;;;;8.40;1.30;;;14.60;99.90;;;;;;7283564;19;20194;-79
2024/02/15 06:08:30;;;;;;;10.13;1.67;;;14.70;99.90;;;;;;7283298;19;20719;-79
2024/02/15 06:10:56;;;;;;;6.93;1.37;;;14.60;99.90;;;;;;7282006;19;20204;-79
2024/02/15 06:13:23;;;;;;;5.30;1.20;;;14.70;99.90;;;;;;7285691;19;20186;-79
2024/02/15 06:15:53;;;;;;;5.37;1.20;;;14.60;99.90;;;;;;7298983;19;20195;-78
2024/02/15 06:18:27;;;;;;;5.50;1.30;;;14.60;99.90;;;;;;7269048;19;20188;-79
2024/02/15 06:21:02;;;;;;;6.43;1.20;;;14.70;99.90;;;;;;7282340;19;21306;-78
2024/02/15 06:23:27;;;;;;;7.30;1.63;;;14.60;99.90;;;;;;7283255;19;20546;-79
2024/02/15 06:25:58;;;;;;;6.47;1.20;;;14.60;99.90;;;;;;7282454;19;20206;-79
2024/02/15 06:39:43;;;;;;;6.00;1.40;;;14.70;99.90;;;;;;7178458;19;2004637;-79
2024/02/15 06:42:15;;;;;;;9.03;1.40;;;14.60;99.90;;;;;;7281043;19;20189;-80
2024/02/15 06:44:41;;;;;;;6.33;1.50;;;14.60;99.90;;;;;;7281958;19;20213;-80
2024/02/15 06:47:10;;;;;;;9.73;1.47;;;14.70;99.90;;;;;;7281643;19;20206;-79
2024/02/15 06:49:39;;;;;;;8.50;1.43;;;14.60;99.90;;;;;;7282195;19;20200;-78
2024/02/15 06:52:06;;;;;;;9.97;1.40;;;14.60;99.90;;;;;;7281106;19;20197;-78
2024/02/15 06:54:36;;;;;;;7.40;1.60;;;14.60;99.90;;;;;;7280434;19;20196;-79
2024/02/15 06:57:04;;;;;;;9.70;2.13;;;14.70;99.90;;;;;;7278955;19;20195;-79
2024/02/15 06:59:31;;;;;;;6.20;1.60;;;14.60;99.90;;;;;;7287317;19;20213;-80
2024/02/15 07:01:58;;;;;;;7.40;1.70;;;14.60;99.90;;;;;;7288053;19;20183;-80
2024/02/15 07:04:25;;;;;;;7.70;1.50;;;14.60;99.90;;;;;;7289019;19;20221;-79
2024/02/15 07:06:53;;;;;;;6.23;1.70;;;14.60;99.90;;;;;;7307353;19;20199;-77
2024/02/15 07:09:21;;;;;;;8.03;1.80;;;14.60;99.90;;;;;;7310606;19;20207;-81
2024/02/15 07:11:47;;;;;;;6.63;1.57;;;14.70;99.90;;;;;;7288308;19;20247;-81
2024/02/15 07:14:13;;;;;;;5.70;1.80;;;14.80;99.90;;;;;;7280031;19;20273;-81
2024/02/15 07:16:51;;;;;;;8.10;1.30;;;14.80;99.90;;;;;;7286200;19;20222;-81
2024/02/15 07:19:18;;;;;;;6.23;1.30;;;14.70;99.90;;;;;;7285725;19;20182;-78
2024/02/15 07:21:44;;;;;;;7.03;1.30;;;14.80;99.90;;;;;;7284929;19;20707;-81
2024/02/15 07:24:09;;;;;;;6.53;1.50;;;14.80;99.90;;;;;;7287210;19;20186;-80
2024/02/15 07:26:36;;;;;;;7.93;1.53;;;14.80;99.90;;;;;;7289927;19;20201;-80
2024/02/15 07:29:05;;;;;;;9.00;1.70;;;14.80;99.90;;;;;;7293185;19;20183;-79
2024/02/15 07:31:32;;;;;;;6.37;1.63;;;14.80;99.90;;;;;;7287030;19;20208;-81
2024/02/15 07:33:58;;;;;;;11.53;2.00;;;14.90;99.90;;;;;;7288441;19;20184;-80
2024/02/15 07:36:25;;;;;;;6.70;1.63;;;15.00;99.90;;;;;;7288507;19;20558;-80
2024/02/15 07:38:53;;;;;;;10.90;1.73;;;15.10;99.90;;;;;;7307254;19;20692;-77
2024/02/15 07:41:22;;;;;;;6.80;1.50;;;15.10;99.90;;;;;;7309532;19;20190;-80
2024/02/15 07:43:52;;;;;;;11.83;1.73;;;15.10;99.90;;;;;;7289568;19;20332;-80
2024/02/15 07:46:18;;;;;;;11.03;2.27;;;15.20;99.90;;;;;;7289183;19;20696;-80
2024/02/15 07:48:45;;;;;;;3.43;1.37;;;15.20;99.90;;;;;;7289232;19;20187;-80
2024/02/15 07:51:22;;;;;;;6.20;1.40;;;15.30;99.90;;;;;;7292845;19;20210;-80
2024/02/15 07:53:49;;;;;;;7.10;1.40;;;15.30;99.90;;;;;;7291034;19;20304;-79
2024/02/15 07:56:16;;;;;;;6.00;1.40;;;15.40;99.90;;;;;;7287411;19;20211;-81
2024/02/15 07:58:47;;;;;;;8.00;1.50;;;15.30;99.90;;;;;;7288046;19;20177;-81
2024/02/15 08:01:16;;;;;;;8.10;1.93;;;15.40;99.90;;;;;;7287086;19;21009;-80
2024/02/15 08:03:46;;;;;;;6.37;1.20;;;15.40;99.90;;;;;;7287475;19;20207;-80
2024/02/15 08:06:12;;;;;;;5.93;1.60;;;15.50;99.90;;;;;;7287316;19;20198;-80
2024/02/15 08:08:45;;;;;;;7.70;1.70;;;15.60;99.90;;;;;;7285368;19;20193;-80
2024/02/15 08:11:15;;;;;;;5.40;1.27;;;15.60;99.90;;;;;;7286424;19;20223;-80
2024/02/15 08:13:45;;;;;;;6.33;1.50;;;15.70;99.90;;;;;;7286548;19;20461;-80
2024/02/15 08:16:12;;;;;;;4.80;1.43;;;15.70;99.90;;;;;;7286842;19;22097;-80
2024/02/15 08:18:39;;;;;;;6.30;1.50;;;15.60;99.90;;;;;;7286058;19;20209;-80
2024/02/15 08:21:05;;;;;;;6.57;1.43;;;15.70;99.90;;;;;;7284724;19;20249;-79
2024/02/15 08:23:32;;;;;;;5.47;1.30;;;15.80;99.90;;;;;;7286547;19;20642;-80
2024/02/15 08:25:58;;;;;;;9.00;1.60;;;15.80;99.90;;;;;;7286094;19;20289;-80
2024/02/15 08:28:23;;;;;;;6.83;1.53;;;15.90;99.90;;;;;;7283881;19;20201;-79
2024/02/15 08:30:51;;;;;;;6.00;1.63;;;15.90;99.90;;;;;;7307889;19;20224;-79
2024/02/15 08:33:19;;;;;;;3.43;1.17;;;16.10;99.90;;;;;;7286069;19;20197;-80
2024/02/15 08:35:45;;;;;;;7.50;1.67;;;16.20;99.90;;;;;;7286253;19;20200;-79
2024/02/15 08:38:11;;;;;;;6.03;1.70;;;16.30;99.90;;;;;;7285055;19;20195;-80
2024/02/15 08:40:36;;;;;;;7.33;1.80;;;16.30;99.90;;;;;;7283657;19;20206;-80
2024/02/15 08:43:02;;;;;;;5.67;1.83;;;16.20;99.90;;;;;;7284359;19;20188;-79
2024/02/15 08:45:28;;;;;;;4.47;1.47;;;16.30;99.90;;;;;;7285595;19;20192;-79
2024/02/15 08:47:54;;;;;;;9.90;1.83;;;16.20;99.90;;;;;;7285772;19;20292;-79
2024/02/15 08:50:22;;;;;;;5.07;1.30;;;16.30;99.90;;;;;;7307618;19;20194;-79
2024/02/15 08:52:48;;;;;;;4.50;1.40;;;16.40;99.90;;;;;;7282987;19;20188;-79
2024/02/15 08:55:14;;;;;;;7.50;1.43;;;16.50;99.90;;;;;;7284579;19;20567;-79
2024/02/15 08:57:40;;;;;;;5.73;1.70;;;16.40;99.90;;;;;;7284450;19;20560;-79
2024/02/15 09:00:13;;;;;;;7.73;1.70;;;16.40;99.90;;;;;;7283525;19;20218;-80
2024/02/15 09:02:46;;;;;;;6.97;1.50;;;16.50;99.90;;;;;;7284470;19;20220;-81
2024/02/15 09:05:17;;;;;;;5.73;1.53;;;16.70;99.90;;;;;;7285470;19;20202;-80
2024/02/15 09:07:43;;;;;;;8.40;1.90;;;16.70;99.90;;;;;;7283985;19;20187;-79
2024/02/15 09:10:12;;;;;;;5.70;1.70;;;16.80;99.90;;;;;;7284351;19;20205;-80
2024/02/15 09:12:39;;;;;;;6.70;1.60;;;16.90;99.90;;;;;;7282659;19;20199;-80
2024/02/15 09:15:07;;;;;;;7.87;1.90;;;17.00;99.90;;;;;;7285108;19;20195;-79
2024/02/15 09:17:38;;;;;;;6.13;1.57;;;17.00;99.90;;;;;;7283105;19;21074;-79
2024/02/15 09:20:07;;;;;;;9.10;1.70;;;17.10;99.90;;;;;;7283443;19;20576;-79
2024/02/15 09:22:33;;;;;;;5.97;1.50;;;17.20;99.90;;;;;;7282360;19;20668;-79
2024/02/15 09:24:59;;;;;;;4.37;1.37;;;17.40;99.90;;;;;;7283332;19;20197;-79
2024/02/15 09:27:24;;;;;;;5.70;1.60;;;17.60;99.90;;;;;;7282280;19;20203;-80
2024/02/15 09:29:50;;;;;;;7.30;1.80;;;17.60;99.90;;;;;;7306882;19;20545;-79
2024/02/15 09:32:16;;;;;;;6.30;1.63;;;17.70;99.90;;;;;;7282836;19;20271;-79
2024/02/15 09:34:41;;;;;;;6.20;1.70;;;17.60;99.90;;;;;;7283595;19;20202;-79
2024/02/15 09:37:07;;;;;;;8.93;1.77;;;17.70;99.90;;;;;;7283859;19;20219;-79
2024/02/15 09:39:33;;;;;;;6.50;1.40;;;17.80;99.90;;;;;;7284561;19;20188;-79
2024/02/15 09:42:00;;;;;;;7.00;1.60;;;17.90;99.90;;;;;;7283568;19;20187;-80
2024/02/15 09:44:29;;;;;;;6.23;1.40;;;18.10;99.90;;;;;;7284787;19;20281;-79
2024/02/15 09:47:04;;;;;;;6.60;1.57;;;18.30;99.90;;;;;;7283985;19;20188;-79
2024/02/15 09:49:39;;;;;;;4.97;1.50;;;18.50;99.90;;;;;;7282981;19;20224;-80
2024/02/15 09:52:15;;;;;;;5.70;1.43;;;18.60;99.90;;;;;;7283053;19;20202;-81
2024/02/15 09:54:45;;;;;;;5.73;1.67;;;18.60;99.90;;;;;;7282304;19;21723;-80
2024/02/15 09:57:11;;;;;;;4.47;1.57;;;18.40;99.90;;;;;;7282549;19;20201;-80
2024/02/15 09:59:38;;;;;;;7.23;1.80;;;18.30;99.90;;;;;;7282312;19;20263;-80
2024/02/15 10:02:10;;;;;;;5.53;1.50;;;18.20;99.90;;;;;;7282614;19;20203;-80
2024/02/15 10:04:37;;;;;;;5.77;1.70;;;18.10;99.90;;;;;;7283909;19;20198;-80
2024/02/15 10:07:03;;;;;;;5.47;1.43;;;17.90;99.90;;;;;;7283100;19;20198;-79
2024/02/15 10:09:30;;;;;;;5.57;1.40;;;18.00;99.90;;;;;;7281964;19;20189;-79
2024/02/15 10:12:00;;;;;;;7.10;1.70;;;18.30;99.90;;;;;;7282407;19;20194;-79
2024/02/15 10:14:27;;;;;;;8.10;1.43;;;18.40;99.90;;;;;;7284587;19;20189;-80
2024/02/15 10:16:54;;;;;;;6.80;1.40;;;18.60;99.90;;;;;;7288468;19;20592;-81
2024/02/15 10:19:24;;;;;;;7.17;2.13;;;18.50;99.90;;;;;;7305026;19;20251;-80
2024/02/15 10:22:06;;;;;;;5.37;1.77;;;18.60;99.90;;;;;;7281155;19;20189;-80
2024/02/15 10:24:31;;;;;;;6.07;1.97;;;18.70;99.90;;;;;;7187098;19;2004750;-80
2024/02/15 10:27:04;;;;;;;7.07;1.70;;;19.00;99.90;;;;;;7292462;19;20208;-81
2024/02/15 10:29:33;;;;;;;6.60;1.50;;;19.70;99.90;;;;;;7291937;19;20197;-81
2024/02/15 10:32:03;;;;;;;5.67;1.67;;;20.40;99.90;;;;;;7290884;19;20270;-81
2024/02/15 10:34:31;;;;;;;9.67;1.73;;;21.60;99.90;;;;;;7296701;19;20184;-81
2024/02/15 10:37:12;;;;;;;6.73;2.23;;;22.40;99.90;;;;;;7294567;19;20196;-80
2024/02/15 10:39:38;;;;;;;7.13;1.70;;;22.90;99.90;;;;;;7287659;19;20186;-80
2024/02/15 10:42:06;;;;;;;5.60;1.63;;;23.10;99.90;;;;;;7287621;19;20183;-80
2024/02/15 10:44:34;;;;;;;5.07;1.40;;;22.90;99.90;;;;;;7288614;19;20456;-80
2024/02/15 10:47:06;;;;;;;4.93;1.40;;;23.20;99.90;;;;;;7288793;19;20184;-80
2024/02/15 10:49:31;;;;;;;3.30;1.10;;;23.60;99.90;;;;;;7287830;19;20229;-80
2024/02/15 10:51:58;;;;;;;5.07;1.40;;;22.50;99.90;;;;;;7289717;19;20192;-80
2024/02/15 10:54:36;;;;;;;4.37;1.30;;;21.80;99.90;;;;;;7287667;19;20173;-80
2024/02/15 10:57:06;;;;;;;4.10;1.00;;;21.20;99.90;;;;;;7289382;19;20210;-80
2024/02/15 10:59:37;;;;;;;4.03;1.00;;;20.70;99.90;;;;;;7291033;19;20189;-80
2024/02/15 11:02:25;;;;;;;3.43;1.00;;;19.80;99.90;;;;;;7298863;19;20191;-80
2024/02/15 11:04:57;;;;;;;4.50;1.10;;;19.20;99.90;;;;;;7292441;19;20185;-80
2024/02/15 11:07:25;;;;;;;5.17;1.20;;;19.10;99.90;;;;;;7279233;19;20197;-79
2024/02/15 11:09:51;;;;;;;5.73;1.10;;;19.00;99.90;;;;;;7309507;19;20177;-80
2024/02/15 11:12:18;;;;;;;6.07;1.10;;;19.20;99.90;;;;;;7288299;19;20226;-81
2024/02/15 11:14:47;;;;;;;4.00;1.10;;;19.30;99.90;;;;;;7287988;19;20632;-80
2024/02/15 11:17:48;;;;;;;5.50;1.30;;;19.60;99.90;;;;;;7288523;19;20182;-81
2024/02/15 11:20:35;;;;;;;4.07;1.10;;;20.40;99.90;;;;;;7185515;19;2004649;-81
2024/02/15 11:23:05;;;;;;;5.83;1.10;;;20.60;99.90;;;;;;7185004;19;2004585;-80
2024/02/15 11:25:37;;;;;;;2.27;0.90;;;20.40;99.90;;;;;;7288128;19;20200;-80
2024/02/15 11:28:21;;;;;;;2.50;1.10;;;20.00;99.90;;;;;;7285296;19;20545;-80
2024/02/15 11:30:47;;;;;;;5.03;1.40;;;19.70;99.90;;;;;;7288375;19;20199;-81
2024/02/15 11:33:36;;;;;;;4.87;1.13;;;19.70;99.90;;;;;;7288169;19;20257;-81
2024/02/15 11:36:06;;;;;;;4.10;1.20;;;19.20;99.90;;;;;;7185546;19;2004779;-80
2024/02/15 11:38:36;;;;;;;5.20;1.30;;;19.10;99.90;;;;;;7287374;19;20200;-81
2024/02/15 11:41:10;;;;;;;2.80;1.10;;;19.00;99.90;;;;;;7286492;19;20988;-80
2024/02/15 11:43:58;;;;;;;6.23;1.30;;;19.10;99.90;;;;;;7286989;19;20199;-80
2024/02/15 11:46:27;;;;;;;5.27;1.40;;;19.20;99.90;;;;;;7265988;19;20269;-80
2024/02/15 11:48:56;;;;;;;5.20;1.30;;;19.50;99.90;;;;;;7304079;19;20196;-78
2024/02/15 11:51:28;;;;;;;5.50;1.30;;;19.70;99.90;;;;;;7306794;19;20275;-77
2024/02/15 11:54:07;;;;;;;4.70;1.30;;;19.80;99.90;;;;;;7287053;19;20186;-80
2024/02/15 11:56:47;;;;;;;3.57;1.20;;;19.60;99.90;;;;;;7285722;19;20202;-80
2024/02/15 11:59:29;;;;;;;5.40;1.07;;;19.60;99.90;;;;;;7286932;19;20227;-80
2024/02/15 12:18:47;;;;;;;6.27;1.70;;;18.70;99.90;;;;;;7184759;19;2006212;-81
2024/02/15 12:21:17;;;;;;;6.07;1.50;;;18.70;99.90;;;;;;7286516;19;20202;-80
2024/02/15 12:23:45;;;;;;;4.13;1.17;;;18.60;99.90;;;;;;7285905;19;20552;-81
2024/02/15 12:26:14;;;;;;;2.53;1.10;;;18.70;99.90;;;;;;7287559;19;20197;-80
2024/02/15 12:28:42;;;;;;;3.03;1.10;;;18.80;99.90;;;;;;7286433;19;20185;-81
2024/02/15 12:31:09;;;;;;;5.77;1.07;;;19.20;99.90;;;;;;7286659;19;20204;-80
2024/02/15 12:33:35;;;;;;;2.87;1.20;;;19.20;99.90;;;;;;7290048;19;20209;-80
2024/02/15 12:36:05;;;;;;;4.80;1.20;;;19.10;99.90;;;;;;7285656;19;20193;-80
2024/02/15 12:38:31;;;;;;;4.83;1.30;;;19.30;99.90;;;;;;7286220;19;20191;-80
2024/02/15 12:40:57;;;;;;;5.60;1.50;;;19.30;99.90;;;;;;7283645;19;20204;-80
2024/02/15 12:43:23;;;;;;;6.07;1.50;;;19.10;99.90;;;;;;7295852;19;20186;-79
2024/02/15 12:45:48;;;;;;;5.30;1.63;;;19.20;99.90;;;;;;7300838;19;20192;-80
2024/02/15 12:48:18;;;;;;;8.13;2.20;;;19.20;99.90;;;;;;7285732;19;20188;-80
2024/02/15 12:50:44;;;;;;;7.73;2.30;;;19.10;99.90;;;;;;7286263;19;20269;-80
2024/02/15 12:53:10;;;;;;;5.40;2.17;;;19.10;99.90;;;;;;7285459;19;20226;-81
2024/02/15 12:55:37;;;;;;;9.03;2.80;;;19.40;99.90;;;;;;7284736;19;20254;-80
2024/02/15 12:58:08;;;;;;;10.67;3.43;;;19.60;99.90;;;;;;7283642;19;20221;-80
2024/02/15 13:00:39;;;;;;;10.17;3.00;;;19.90;99.90;;;;;;7285024;19;20534;-80
2024/02/15 13:03:09;;;;;;;8.37;2.80;;;20.00;99.90;;;;;;7284405;19;20722;-80
2024/02/15 13:05:36;;;;;;;10.23;3.10;;;20.10;99.90;;;;;;7284351;19;20185;-80
2024/02/15 13:08:02;;;;;;;10.00;2.97;;;20.40;99.90;;;;;;7285249;19;20291;-80
2024/02/15 13:10:29;;;;;;;10.27;3.17;;;20.30;99.90;;;;;;7285030;19;20245;-81
2024/02/15 13:12:55;;;;;;;9.23;2.80;;;20.30;99.90;;;;;;7284142;19;20187;-80
2024/02/15 13:15:26;;;;;;;8.20;2.53;;;20.20;99.90;;;;;;7306885;19;20212;-81
2024/02/15 13:17:55;;;;;;;8.33;2.37;;;20.20;99.90;;;;;;7282993;19;20193;-78